map of PAP home
PAP - Airport
Location
City:  Port-au-Prince, Haiti
Name:Toussaint Louverture International Airport
ICAO:MTPP
IATA:PAP

Details
Type:Airport (Aerodrome, Airfield)
Use:Public/Civil, International (customs port of entry)
Latitude:1834'48"N (18.580050)
Longitude:7217'33"W (-72.292541)
Datum:WGS 1984
Elevation:122 ft (37 m)
Variation:10.19W (WMM2015 magnetic declination)
-0.09 annual change
Runways:1
Longest:9974 × 141 ft (3040 × 43 m), paved

Time
Time Zone:UTC-5
Local Time:

Weather
METAR:MTPP 120001Z 24008KT 8000 FEW028 28/22 Q1012 A2989
TAF:MTPP 111700Z 1118/1218 27005KT 9999 FEW030 PROB30
TEMPO 1202/1204 4500 SHRA FEW020CB BKN030
BECMG 1206/1210 VRB02KT 8000 NSW FEW016 SCT050
TEMPO 1212/1216 10010KT

Related Locations
Nearby:
Farthest:EXM: 11965 mi / 19256 km
Exmouth Gulf, WA, AU

Find:

   beyond  
but within

Other Information
Maps:
NOTAMs:
Links:
Sources:

  
flag of Haiti   

Sectional Chart

Flight Planning
at skyvector.com

Satellite Image

Google Maps Satellite view

 

Copyright © 2004-2017 Karl L. Swartz. All rights reserved.
The Great Circle Mapper name and logo are trademarks of the Great Circle Mapper.
All other trademarks mentioned herein belong to their respective owners.
Please see credits for attibutions and further copyright information.

  Follow gcmap on Facebook Follow gcmap on Twitter Follow gcmap on Google+ GCmap on LinkedIn

hCard Microformat

Geo Microformat